sensor_id;sensor_type;location;lat;lon;timestamp;temperature;humidity
54642;DHT22;40536;53.194;5.728;2023-03-01T00:01:25;-0.90;99.90
54642;DHT22;40536;53.194;5.728;2023-03-01T00:03:51;-0.80;99.90
54642;DHT22;40536;53.194;5.728;2023-03-01T00:06:18;-0.80;99.90
54642;DHT22;40536;53.194;5.728;2023-03-01T00:08:44;-0.80;99.90
54642;DHT22;40536;53.194;5.728;2023-03-01T00:11:22;-0.80;99.90
54642;DHT22;40536;53.194;5.728;2023-03-01T00:13:51;-0.80;99.90
54642;DHT22;40536;53.194;5.728;2023-03-01T00:16:20;-0.80;99.90
54642;DHT22;40536;53.194;5.728;2023-03-01T00:18:47;-0.80;99.90
54642;DHT22;40536;53.194;5.728;2023-03-01T00:21:13;-0.80;99.90
54642;DHT22;40536;53.194;5.728;2023-03-01T00:23:39;-0.90;99.90
54642;DHT22;40536;53.194;5.728;2023-03-01T00:26:12;-0.90;99.90
54642;DHT22;40536;53.194;5.728;2023-03-01T00:28:38;-0.90;99.90
54642;DHT22;40536;53.194;5.728;2023-03-01T00:31:09;-1.00;99.90
54642;DHT22;40536;53.194;5.728;2023-03-01T00:33:35;-1.00;99.90
54642;DHT22;40536;53.194;5.728;2023-03-01T00:36:01;-1.00;99.90
54642;DHT22;40536;53.194;5.728;2023-03-01T00:38:28;-0.90;99.90
54642;DHT22;40536;53.194;5.728;2023-03-01T00:40:54;-1.00;99.90
54642;DHT22;40536;53.194;5.728;2023-03-01T00:43:19;-1.00;99.90
54642;DHT22;40536;53.194;5.728;2023-03-01T00:45:45;-1.00;99.90
54642;DHT22;40536;53.194;5.728;2023-03-01T00:48:11;-1.10;99.90
54642;DHT22;40536;53.194;5.728;2023-03-01T00:50:36;-1.20;99.90
54642;DHT22;40536;53.194;5.728;2023-03-01T00:53:02;-1.30;99.90
54642;DHT22;40536;53.194;5.728;2023-03-01T00:55:28;-1.30;99.90
54642;DHT22;40536;53.194;5.728;2023-03-01T00:57:54;-1.20;99.90
54642;DHT22;40536;53.194;5.728;2023-03-01T01:00:20;-1.20;99.90
54642;DHT22;40536;53.194;5.728;2023-03-01T01:02:46;-1.20;99.90
54642;DHT22;40536;53.194;5.728;2023-03-01T01:05:12;-1.20;99.90
54642;DHT22;40536;53.194;5.728;2023-03-01T01:07:38;-1.20;99.90
54642;DHT22;40536;53.194;5.728;2023-03-01T01:10:04;-1.20;99.90
54642;DHT22;40536;53.194;5.728;2023-03-01T01:12:30;-1.10;99.90
54642;DHT22;40536;53.194;5.728;2023-03-01T01:14:55;-1.20;99.90
54642;DHT22;40536;53.194;5.728;2023-03-01T01:17:21;-1.20;99.90
54642;DHT22;40536;53.194;5.728;2023-03-01T01:19:47;-1.20;99.90
54642;DHT22;40536;53.194;5.728;2023-03-01T01:22:12;-1.20;99.90
54642;DHT22;40536;53.194;5.728;2023-03-01T01:24:38;-1.20;99.90
54642;DHT22;40536;53.194;5.728;2023-03-01T01:27:04;-1.30;99.90
54642;DHT22;40536;53.194;5.728;2023-03-01T01:29:29;-1.30;99.90
54642;DHT22;40536;53.194;5.728;2023-03-01T01:31:55;-1.30;99.90
54642;DHT22;40536;53.194;5.728;2023-03-01T01:34:21;-1.40;99.90
54642;DHT22;40536;53.194;5.728;2023-03-01T01:36:49;-1.40;99.90
54642;DHT22;40536;53.194;5.728;2023-03-01T01:39:15;-1.50;99.90
54642;DHT22;40536;53.194;5.728;2023-03-01T01:41:41;-1.50;99.90
54642;DHT22;40536;53.194;5.728;2023-03-01T01:46:57;-1.50;99.90
54642;DHT22;40536;53.194;5.728;2023-03-01T01:52:17;-1.70;99.90
54642;DHT22;40536;53.194;5.728;2023-03-01T01:54:53;-1.70;99.90
54642;DHT22;40536;53.194;5.728;2023-03-01T01:57:26;-1.80;99.90
54642;DHT22;40536;53.194;5.728;2023-03-01T01:59:54;-1.80;99.90
54642;DHT22;40536;53.194;5.728;2023-03-01T02:02:21;0.20;99.90
54642;DHT22;40536;53.194;5.728;2023-03-01T02:04:49;-1.90;99.90
54642;DHT22;40536;53.194;5.728;2023-03-01T02:07:21;-1.90;99.90
54642;DHT22;40536;53.194;5.728;2023-03-01T02:09:49;-1.90;99.90
54642;DHT22;40536;53.194;5.728;2023-03-01T02:12:17;-1.90;99.90
54642;DHT22;40536;53.194;5.728;2023-03-01T02:14:43;-1.90;99.90
54642;DHT22;40536;53.194;5.728;2023-03-01T02:17:11;-2.00;99.90
54642;DHT22;40536;53.194;5.728;2023-03-01T02:19:54;-2.00;99.90
54642;DHT22;40536;53.194;5.728;2023-03-01T02:22:29;-2.00;99.90
54642;DHT22;40536;53.194;5.728;2023-03-01T02:27:51;-2.00;99.90
54642;DHT22;40536;53.194;5.728;2023-03-01T02:30:19;-2.00;99.90
54642;DHT22;40536;53.194;5.728;2023-03-01T02:32:46;-2.00;99.90
54642;DHT22;40536;53.194;5.728;2023-03-01T02:35:14;-2.00;99.90
54642;DHT22;40536;53.194;5.728;2023-03-01T02:37:42;-2.00;99.90
54642;DHT22;40536;53.194;5.728;2023-03-01T02:40:12;-2.10;99.90
54642;DHT22;40536;53.194;5.728;2023-03-01T02:42:49;-2.10;99.90
54642;DHT22;40536;53.194;5.728;2023-03-01T02:45:16;-2.10;99.90
54642;DHT22;40536;53.194;5.728;2023-03-01T02:47:42;-2.10;99.90
54642;DHT22;40536;53.194;5.728;2023-03-01T02:50:21;-2.10;99.90
54642;DHT22;40536;53.194;5.728;2023-03-01T02:55:19;-2.00;99.90
54642;DHT22;40536;53.194;5.728;2023-03-01T02:57:46;-2.00;99.90
54642;DHT22;40536;53.194;5.728;2023-03-01T03:02:49;-2.00;99.90
54642;DHT22;40536;53.194;5.728;2023-03-01T03:05:18;-2.00;99.90
54642;DHT22;40536;53.194;5.728;2023-03-01T03:07:45;-1.90;99.90
54642;DHT22;40536;53.194;5.728;2023-03-01T03:10:29;-2.00;99.90
54642;DHT22;40536;53.194;5.728;2023-03-01T03:13:09;-1.90;99.90
54642;DHT22;40536;53.194;5.728;2023-03-01T03:15:35;-1.90;99.90
54642;DHT22;40536;53.194;5.728;2023-03-01T03:18:02;-1.80;99.90
54642;DHT22;40536;53.194;5.728;2023-03-01T03:20:29;-1.70;99.90
54642;DHT22;40536;53.194;5.728;2023-03-01T03:22:56;-1.80;99.90
54642;DHT22;40536;53.194;5.728;2023-03-01T03:25:25;-1.70;99.90
54642;DHT22;40536;53.194;5.728;2023-03-01T03:27:51;-1.70;99.90
54642;DHT22;40536;53.194;5.728;2023-03-01T03:30:23;-1.70;99.90
54642;DHT22;40536;53.194;5.728;2023-03-01T03:32:49;-1.40;99.90
54642;DHT22;40536;53.194;5.728;2023-03-01T03:35:24;-1.70;99.90
54642;DHT22;40536;53.194;5.728;2023-03-01T03:37:50;-1.60;99.90
54642;DHT22;40536;53.194;5.728;2023-03-01T03:40:39;-1.60;99.90
54642;DHT22;40536;53.194;5.728;2023-03-01T03:43:08;-0.60;99.90
54642;DHT22;40536;53.194;5.728;2023-03-01T03:45:35;-1.50;99.90
54642;DHT22;40536;53.194;5.728;2023-03-01T03:48:02;-1.60;99.90
54642;DHT22;40536;53.194;5.728;2023-03-01T03:50:29;-1.60;99.90
54642;DHT22;40536;53.194;5.728;2023-03-01T03:52:54;-0.70;99.90
54642;DHT22;40536;53.194;5.728;2023-03-01T03:55:20;-1.50;99.90
54642;DHT22;40536;53.194;5.728;2023-03-01T03:57:47;-1.50;99.90
54642;DHT22;40536;53.194;5.728;2023-03-01T04:00:19;-1.50;99.90
54642;DHT22;40536;53.194;5.728;2023-03-01T04:02:46;-1.50;99.90
54642;DHT22;40536;53.194;5.728;2023-03-01T04:05:15;-1.50;99.90
54642;DHT22;40536;53.194;5.728;2023-03-01T04:07:41;-1.50;99.90
54642;DHT22;40536;53.194;5.728;2023-03-01T04:10:13;-0.50;99.90
54642;DHT22;40536;53.194;5.728;2023-03-01T04:12:40;-1.50;99.90
54642;DHT22;40536;53.194;5.728;2023-03-01T04:15:06;-1.50;99.90
54642;DHT22;40536;53.194;5.728;2023-03-01T04:17:46;-1.50;99.90
54642;DHT22;40536;53.194;5.728;2023-03-01T04:20:18;-1.40;99.90
54642;DHT22;40536;53.194;5.728;2023-03-01T04:23:06;-1.50;99.90
54642;DHT22;40536;53.194;5.728;2023-03-01T04:25:45;-1.50;99.90
54642;DHT22;40536;53.194;5.728;2023-03-01T04:28:11;-1.60;99.90
54642;DHT22;40536;53.194;5.728;2023-03-01T04:30:38;-1.60;99.90
54642;DHT22;40536;53.194;5.728;2023-03-01T04:33:08;-1.60;99.90
54642;DHT22;40536;53.194;5.728;2023-03-01T04:35:36;-1.60;99.90
54642;DHT22;40536;53.194;5.728;2023-03-01T04:38:02;-1.60;99.90
54642;DHT22;40536;53.194;5.728;2023-03-01T04:40:28;-1.70;99.90
54642;DHT22;40536;53.194;5.728;2023-03-01T04:42:54;-1.70;99.90
54642;DHT22;40536;53.194;5.728;2023-03-01T04:45:25;-1.80;99.90
54642;DHT22;40536;53.194;5.728;2023-03-01T04:47:51;-1.90;99.90
54642;DHT22;40536;53.194;5.728;2023-03-01T04:50:21;-1.90;99.90
54642;DHT22;40536;53.194;5.728;2023-03-01T04:52:48;-2.00;99.90
54642;DHT22;40536;53.194;5.728;2023-03-01T04:55:14;-1.90;99.90
54642;DHT22;40536;53.194;5.728;2023-03-01T04:57:40;-2.00;99.90
54642;DHT22;40536;53.194;5.728;2023-03-01T05:00:08;-2.00;99.90
54642;DHT22;40536;53.194;5.728;2023-03-01T05:03:08;-1.90;99.90
54642;DHT22;40536;53.194;5.728;2023-03-01T05:05:37;-2.00;99.90
54642;DHT22;40536;53.194;5.728;2023-03-01T05:08:07;-0.90;99.90
54642;DHT22;40536;53.194;5.728;2023-03-01T05:10:35;-2.00;99.90
54642;DHT22;40536;53.194;5.728;2023-03-01T05:13:01;-2.00;99.90
54642;DHT22;40536;53.194;5.728;2023-03-01T05:15:30;-2.10;99.90
54642;DHT22;40536;53.194;5.728;2023-03-01T05:17:58;-2.00;99.90
54642;DHT22;40536;53.194;5.728;2023-03-01T05:20:28;-2.10;99.90
54642;DHT22;40536;53.194;5.728;2023-03-01T05:22:56;-2.00;99.90
54642;DHT22;40536;53.194;5.728;2023-03-01T05:25:24;-1.00;99.90
54642;DHT22;40536;53.194;5.728;2023-03-01T05:27:50;-2.00;99.90
54642;DHT22;40536;53.194;5.728;2023-03-01T05:30:16;-2.00;99.90
54642;DHT22;40536;53.194;5.728;2023-03-01T05:32:45;-1.80;99.90
54642;DHT22;40536;53.194;5.728;2023-03-01T05:35:14;-1.90;99.90
54642;DHT22;40536;53.194;5.728;2023-03-01T05:37:44;-2.00;99.90
54642;DHT22;40536;53.194;5.728;2023-03-01T05:40:12;-1.90;99.90
54642;DHT22;40536;53.194;5.728;2023-03-01T05:42:49;-1.90;99.90
54642;DHT22;40536;53.194;5.728;2023-03-01T05:45:16;-2.00;99.90
54642;DHT22;40536;53.194;5.728;2023-03-01T05:47:45;-1.90;99.90
54642;DHT22;40536;53.194;5.728;2023-03-01T05:50:18;-1.90;99.90
54642;DHT22;40536;53.194;5.728;2023-03-01T05:52:48;-1.90;99.90
54642;DHT22;40536;53.194;5.728;2023-03-01T05:55:16;-1.90;99.90
54642;DHT22;40536;53.194;5.728;2023-03-01T05:57:42;-1.90;99.90
54642;DHT22;40536;53.194;5.728;2023-03-01T06:00:09;-1.90;99.90
54642;DHT22;40536;53.194;5.728;2023-03-01T06:02:35;-1.90;99.90
54642;DHT22;40536;53.194;5.728;2023-03-01T06:05:00;-1.90;99.90
54642;DHT22;40536;53.194;5.728;2023-03-01T06:07:26;-2.00;99.90
54642;DHT22;40536;53.194;5.728;2023-03-01T06:09:51;-2.00;99.90
54642;DHT22;40536;53.194;5.728;2023-03-01T06:12:17;-2.00;99.90
54642;DHT22;40536;53.194;5.728;2023-03-01T06:14:43;-2.10;99.90
54642;DHT22;40536;53.194;5.728;2023-03-01T06:17:10;-2.10;99.90
54642;DHT22;40536;53.194;5.728;2023-03-01T06:19:35;-2.20;99.90
54642;DHT22;40536;53.194;5.728;2023-03-01T06:22:04;-2.20;99.90
54642;DHT22;40536;53.194;5.728;2023-03-01T06:24:30;-2.30;99.90
54642;DHT22;40536;53.194;5.728;2023-03-01T06:26:55;-2.30;99.90
54642;DHT22;40536;53.194;5.728;2023-03-01T06:29:21;-2.40;99.90
54642;DHT22;40536;53.194;5.728;2023-03-01T06:31:48;-2.40;99.90
54642;DHT22;40536;53.194;5.728;2023-03-01T06:34:14;-2.40;99.90
54642;DHT22;40536;53.194;5.728;2023-03-01T06:36:40;-2.50;99.90
54642;DHT22;40536;53.194;5.728;2023-03-01T06:39:06;-2.50;99.90
54642;DHT22;40536;53.194;5.728;2023-03-01T06:41:32;-2.50;99.90
54642;DHT22;40536;53.194;5.728;2023-03-01T06:43:59;-2.50;99.90
54642;DHT22;40536;53.194;5.728;2023-03-01T06:46:30;-2.50;99.90
54642;DHT22;40536;53.194;5.728;2023-03-01T06:49:01;-2.60;99.90
54642;DHT22;40536;53.194;5.728;2023-03-01T06:51:26;-2.50;99.90
54642;DHT22;40536;53.194;5.728;2023-03-01T06:53:52;-2.50;99.90
54642;DHT22;40536;53.194;5.728;2023-03-01T06:56:17;-2.40;99.90
54642;DHT22;40536;53.194;5.728;2023-03-01T06:58:43;-2.40;99.90
54642;DHT22;40536;53.194;5.728;2023-03-01T07:01:09;-0.40;99.90
54642;DHT22;40536;53.194;5.728;2023-03-01T07:03:34;-2.40;99.90
54642;DHT22;40536;53.194;5.728;2023-03-01T07:06:00;-2.40;99.90
54642;DHT22;40536;53.194;5.728;2023-03-01T07:08:26;-0.80;99.90
54642;DHT22;40536;53.194;5.728;2023-03-01T07:10:56;-2.40;99.90
54642;DHT22;40536;53.194;5.728;2023-03-01T07:13:22;-2.40;99.90
54642;DHT22;40536;53.194;5.728;2023-03-01T07:15:47;-2.40;99.90
54642;DHT22;40536;53.194;5.728;2023-03-01T07:18:13;-2.40;99.90
54642;DHT22;40536;53.194;5.728;2023-03-01T07:20:39;-2.70;99.90
54642;DHT22;40536;53.194;5.728;2023-03-01T07:23:09;-2.30;99.90
54642;DHT22;40536;53.194;5.728;2023-03-01T07:25:34;-2.20;99.90
54642;DHT22;40536;53.194;5.728;2023-03-01T07:28:00;-2.20;99.90
54642;DHT22;40536;53.194;5.728;2023-03-01T07:30:29;-2.10;99.90
54642;DHT22;40536;53.194;5.728;2023-03-01T07:32:56;-2.20;99.90
54642;DHT22;40536;53.194;5.728;2023-03-01T07:35:25;-2.10;99.90
54642;DHT22;40536;53.194;5.728;2023-03-01T07:37:51;-1.90;99.90
54642;DHT22;40536;53.194;5.728;2023-03-01T07:42:43;-1.40;99.90
54642;DHT22;40536;53.194;5.728;2023-03-01T07:45:09;-1.20;99.90
54642;DHT22;40536;53.194;5.728;2023-03-01T07:47:35;-1.00;99.90
54642;DHT22;40536;53.194;5.728;2023-03-01T07:50:00;-0.90;99.90
54642;DHT22;40536;53.194;5.728;2023-03-01T07:52:27;-0.80;99.90
54642;DHT22;40536;53.194;5.728;2023-03-01T07:54:52;-0.70;99.90
54642;DHT22;40536;53.194;5.728;2023-03-01T07:57:18;-0.60;99.90
54642;DHT22;40536;53.194;5.728;2023-03-01T07:59:44;-0.60;99.90
54642;DHT22;40536;53.194;5.728;2023-03-01T08:02:10;-0.50;99.90
54642;DHT22;40536;53.194;5.728;2023-03-01T08:04:36;1.70;99.90
54642;DHT22;40536;53.194;5.728;2023-03-01T08:07:04;-0.30;99.90
54642;DHT22;40536;53.194;5.728;2023-03-01T08:09:30;-0.20;99.90
54642;DHT22;40536;53.194;5.728;2023-03-01T08:11:57;-0.10;99.90
54642;DHT22;40536;53.194;5.728;2023-03-01T08:14:25;0.00;99.90
54642;DHT22;40536;53.194;5.728;2023-03-01T08:16:50;0.10;99.90
54642;DHT22;40536;53.194;5.728;2023-03-01T08:19:16;0.20;99.90
54642;DHT22;40536;53.194;5.728;2023-03-01T08:21:42;0.30;99.90
54642;DHT22;40536;53.194;5.728;2023-03-01T08:24:08;0.50;99.90
54642;DHT22;40536;53.194;5.728;2023-03-01T08:26:36;0.60;99.90
54642;DHT22;40536;53.194;5.728;2023-03-01T08:29:02;0.70;99.90
54642;DHT22;40536;53.194;5.728;2023-03-01T08:31:33;0.90;99.90
54642;DHT22;40536;53.194;5.728;2023-03-01T08:34:03;1.10;99.90
54642;DHT22;40536;53.194;5.728;2023-03-01T08:36:36;1.30;99.90
54642;DHT22;40536;53.194;5.728;2023-03-01T08:39:03;1.60;99.90
54642;DHT22;40536;53.194;5.728;2023-03-01T08:41:29;1.90;99.90
54642;DHT22;40536;53.194;5.728;2023-03-01T08:43:55;2.20;99.90
54642;DHT22;40536;53.194;5.728;2023-03-01T08:46:28;3.60;99.90
54642;DHT22;40536;53.194;5.728;2023-03-01T08:48:54;2.80;99.90
54642;DHT22;40536;53.194;5.728;2023-03-01T08:51:20;3.20;99.90
54642;DHT22;40536;53.194;5.728;2023-03-01T08:53:46;4.40;99.90
54642;DHT22;40536;53.194;5.728;2023-03-01T08:56:13;3.70;99.90
54642;DHT22;40536;53.194;5.728;2023-03-01T08:58:39;4.20;99.90
54642;DHT22;40536;53.194;5.728;2023-03-01T09:01:08;4.60;99.90
54642;DHT22;40536;53.194;5.728;2023-03-01T09:03:34;5.30;99.90
54642;DHT22;40536;53.194;5.728;2023-03-01T09:06:01;5.90;99.90
54642;DHT22;40536;53.194;5.728;2023-03-01T09:08:27;6.50;99.90
54642;DHT22;40536;53.194;5.728;2023-03-01T09:10:53;7.80;99.90
54642;DHT22;40536;53.194;5.728;2023-03-01T09:13:18;7.70;99.90
54642;DHT22;40536;53.194;5.728;2023-03-01T09:15:44;8.20;99.90
54642;DHT22;40536;53.194;5.728;2023-03-01T09:18:10;8.60;99.90
54642;DHT22;40536;53.194;5.728;2023-03-01T09:20:35;9.90;99.90
54642;DHT22;40536;53.194;5.728;2023-03-01T09:23:01;9.50;99.90
54642;DHT22;40536;53.194;5.728;2023-03-01T09:25:27;9.90;99.90
54642;DHT22;40536;53.194;5.728;2023-03-01T09:27:54;10.30;99.90
54642;DHT22;40536;53.194;5.728;2023-03-01T09:30:20;10.60;99.90
54642;DHT22;40536;53.194;5.728;2023-03-01T09:32:46;10.80;99.90
54642;DHT22;40536;53.194;5.728;2023-03-01T09:35:12;11.10;99.90
54642;DHT22;40536;53.194;5.728;2023-03-01T09:37:38;11.40;99.90
54642;DHT22;40536;53.194;5.728;2023-03-01T09:40:20;11.70;99.90
54642;DHT22;40536;53.194;5.728;2023-03-01T09:43:07;12.10;99.90
54642;DHT22;40536;53.194;5.728;2023-03-01T09:45:36;12.40;99.90
54642;DHT22;40536;53.194;5.728;2023-03-01T09:48:04;12.70;99.90
54642;DHT22;40536;53.194;5.728;2023-03-01T09:50:41;13.00;99.90
54642;DHT22;40536;53.194;5.728;2023-03-01T09:53:17;13.10;99.90
54642;DHT22;40536;53.194;5.728;2023-03-01T09:55:48;13.30;99.90
54642;DHT22;40536;53.194;5.728;2023-03-01T10:00:44;13.80;99.90
54642;DHT22;40536;53.194;5.728;2023-03-01T10:08:24;14.30;99.90
54642;DHT22;40536;53.194;5.728;2023-03-01T10:10:52;14.60;99.90
54642;DHT22;40536;53.194;5.728;2023-03-01T10:16:27;15.00;99.90
54642;DHT22;40536;53.194;5.728;2023-03-01T10:18:59;15.20;99.90
54642;DHT22;40536;53.194;5.728;2023-03-01T10:21:27;15.20;99.90
54642;DHT22;40536;53.194;5.728;2023-03-01T10:23:53;15.40;99.90
54642;DHT22;40536;53.194;5.728;2023-03-01T10:29:07;15.60;99.90
54642;DHT22;40536;53.194;5.728;2023-03-01T10:36:39;15.60;99.90
54642;DHT22;40536;53.194;5.728;2023-03-01T10:39:21;15.50;99.90
54642;DHT22;40536;53.194;5.728;2023-03-01T10:41:59;15.60;99.90
54642;DHT22;40536;53.194;5.728;2023-03-01T10:44:40;15.70;99.90
54642;DHT22;40536;53.194;5.728;2023-03-01T10:47:21;15.90;99.90
54642;DHT22;40536;53.194;5.728;2023-03-01T10:50:02;16.10;99.90
54642;DHT22;40536;53.194;5.728;2023-03-01T10:52:37;16.20;99.90
54642;DHT22;40536;53.194;5.728;2023-03-01T10:55:24;16.10;99.90
54642;DHT22;40536;53.194;5.728;2023-03-01T10:57:48;16.00;99.90
54642;DHT22;40536;53.194;5.728;2023-03-01T11:00:24;16.10;99.90
54642;DHT22;40536;53.194;5.728;2023-03-01T11:03:13;16.10;99.90
54642;DHT22;40536;53.194;5.728;2023-03-01T11:05:51;16.10;99.90
54642;DHT22;40536;53.194;5.728;2023-03-01T11:08:39;15.80;99.90
54642;DHT22;40536;53.194;5.728;2023-03-01T11:11:26;15.70;99.90
54642;DHT22;40536;53.194;5.728;2023-03-01T11:14:03;15.60;99.90
54642;DHT22;40536;53.194;5.728;2023-03-01T11:16:35;15.50;99.90
54642;DHT22;40536;53.194;5.728;2023-03-01T11:22:04;15.20;99.90
54642;DHT22;40536;53.194;5.728;2023-03-01T11:24:42;15.20;99.90
54642;DHT22;40536;53.194;5.728;2023-03-01T11:27:18;15.10;99.90
54642;DHT22;40536;53.194;5.728;2023-03-01T11:30:00;15.10;99.90
54642;DHT22;40536;53.194;5.728;2023-03-01T11:32:35;15.10;99.90
54642;DHT22;40536;53.194;5.728;2023-03-01T11:35:27;15.10;99.90
54642;DHT22;40536;53.194;5.728;2023-03-01T11:38:06;15.00;99.90
54642;DHT22;40536;53.194;5.728;2023-03-01T11:40:43;14.90;99.90
54642;DHT22;40536;53.194;5.728;2023-03-01T11:43:20;14.80;99.90
54642;DHT22;40536;53.194;5.728;2023-03-01T12:01:02;14.10;99.90
54642;DHT22;40536;53.194;5.728;2023-03-01T12:09:17;13.90;99.90
54642;DHT22;40536;53.194;5.728;2023-03-01T12:12:18;13.80;99.90
54642;DHT22;40536;53.194;5.728;2023-03-01T12:15:11;13.70;99.90
54642;DHT22;40536;53.194;5.728;2023-03-01T12:18:17;13.60;99.90
54642;DHT22;40536;53.194;5.728;2023-03-01T12:34:30;12.80;99.90
54642;DHT22;40536;53.194;5.728;2023-03-01T12:39:51;12.70;99.90
54642;DHT22;40536;53.194;5.728;2023-03-01T12:42:44;12.60;99.90
54642;DHT22;40536;53.194;5.728;2023-03-01T12:51:15;12.40;99.90
54642;DHT22;40536;53.194;5.728;2023-03-01T12:53:45;12.30;99.90
54642;DHT22;40536;53.194;5.728;2023-03-01T12:56:14;12.30;99.90
54642;DHT22;40536;53.194;5.728;2023-03-01T12:59:11;12.30;99.90
54642;DHT22;40536;53.194;5.728;2023-03-01T13:17:53;12.00;99.90
54642;DHT22;40536;53.194;5.728;2023-03-01T13:20:23;12.00;99.90
54642;DHT22;40536;53.194;5.728;2023-03-01T13:23:01;11.90;99.90
54642;DHT22;40536;53.194;5.728;2023-03-01T13:25:27;11.90;99.90
54642;DHT22;40536;53.194;5.728;2023-03-01T13:28:35;11.70;99.90
54642;DHT22;40536;53.194;5.728;2023-03-01T13:31:03;11.60;99.90
54642;DHT22;40536;53.194;5.728;2023-03-01T13:35:58;11.40;99.90
54642;DHT22;40536;53.194;5.728;2023-03-01T13:41:08;11.40;99.90
54642;DHT22;40536;53.194;5.728;2023-03-01T13:43:39;11.40;99.90
54642;DHT22;40536;53.194;5.728;2023-03-01T13:46:18;11.40;99.90
54642;DHT22;40536;53.194;5.728;2023-03-01T13:48:50;11.30;99.90
54642;DHT22;40536;53.194;5.728;2023-03-01T13:51:16;11.30;99.90
54642;DHT22;40536;53.194;5.728;2023-03-01T13:53:47;11.30;99.90
54642;DHT22;40536;53.194;5.728;2023-03-01T13:56:37;11.40;99.90
54642;DHT22;40536;53.194;5.728;2023-03-01T13:59:19;11.60;99.90
54642;DHT22;40536;53.194;5.728;2023-03-01T14:01:55;11.40;99.90
54642;DHT22;40536;53.194;5.728;2023-03-01T14:04:32;11.30;99.90
54642;DHT22;40536;53.194;5.728;2023-03-01T14:07:21;11.30;99.90
54642;DHT22;40536;53.194;5.728;2023-03-01T14:09:53;11.20;99.90
54642;DHT22;40536;53.194;5.728;2023-03-01T14:15:20;11.10;99.90
54642;DHT22;40536;53.194;5.728;2023-03-01T14:20:37;11.10;99.90
54642;DHT22;40536;53.194;5.728;2023-03-01T14:23:10;11.00;99.90
54642;DHT22;40536;53.194;5.728;2023-03-01T14:25:38;10.90;99.90
54642;DHT22;40536;53.194;5.728;2023-03-01T14:28:13;10.90;99.90
54642;DHT22;40536;53.194;5.728;2023-03-01T14:30:49;10.90;99.90
54642;DHT22;40536;53.194;5.728;2023-03-01T14:33:30;10.90;99.90
54642;DHT22;40536;53.194;5.728;2023-03-01T14:35:59;10.90;99.90
54642;DHT22;40536;53.194;5.728;2023-03-01T14:38:49;11.50;99.90
54642;DHT22;40536;53.194;5.728;2023-03-01T14:41:17;10.70;99.90
54642;DHT22;40536;53.194;5.728;2023-03-01T14:44:05;10.80;99.90
54642;DHT22;40536;53.194;5.728;2023-03-01T14:46:39;10.50;99.90
54642;DHT22;40536;53.194;5.728;2023-03-01T14:49:17;10.50;99.90
54642;DHT22;40536;53.194;5.728;2023-03-01T14:54:25;10.50;99.90
54642;DHT22;40536;53.194;5.728;2023-03-01T14:56:53;10.50;99.90
54642;DHT22;40536;53.194;5.728;2023-03-01T14:59:22;10.30;99.90
54642;DHT22;40536;53.194;5.728;2023-03-01T15:01:53;10.30;99.90
54642;DHT22;40536;53.194;5.728;2023-03-01T15:04:20;10.90;99.90
54642;DHT22;40536;53.194;5.728;2023-03-01T15:06:50;10.10;99.90
54642;DHT22;40536;53.194;5.728;2023-03-01T15:09:16;10.00;99.90
54642;DHT22;40536;53.194;5.728;2023-03-01T15:14:46;10.00;99.90
54642;DHT22;40536;53.194;5.728;2023-03-01T15:17:36;10.60;99.90
54642;DHT22;40536;53.194;5.728;2023-03-01T15:20:06;9.90;99.90
54642;DHT22;40536;53.194;5.728;2023-03-01T15:22:32;9.80;99.90
54642;DHT22;40536;53.194;5.728;2023-03-01T15:24:58;10.10;99.90
54642;DHT22;40536;53.194;5.728;2023-03-01T15:27:25;10.40;99.90
54642;DHT22;40536;53.194;5.728;2023-03-01T15:29:59;10.20;99.90
54642;DHT22;40536;53.194;5.728;2023-03-01T15:34:54;9.60;99.90
54642;DHT22;40536;53.194;5.728;2023-03-01T15:37:53;9.40;99.90
54642;DHT22;40536;53.194;5.728;2023-03-01T15:42:50;9.30;99.90
54642;DHT22;40536;53.194;5.728;2023-03-01T15:47:48;9.20;99.90
54642;DHT22;40536;53.194;5.728;2023-03-01T15:50:30;9.70;99.90
54642;DHT22;40536;53.194;5.728;2023-03-01T15:52:59;9.00;99.90
54642;DHT22;40536;53.194;5.728;2023-03-01T15:55:27;9.00;99.90
54642;DHT22;40536;53.194;5.728;2023-03-01T16:00:32;8.90;99.90
54642;DHT22;40536;53.194;5.728;2023-03-01T16:02:58;8.90;99.90
54642;DHT22;40536;53.194;5.728;2023-03-01T16:05:27;9.30;99.90
54642;DHT22;40536;53.194;5.728;2023-03-01T16:07:53;9.30;99.90
54642;DHT22;40536;53.194;5.728;2023-03-01T16:10:19;8.80;99.90
54642;DHT22;40536;53.194;5.728;2023-03-01T16:12:45;9.00;99.90
54642;DHT22;40536;53.194;5.728;2023-03-01T16:15:19;8.70;99.90
54642;DHT22;40536;53.194;5.728;2023-03-01T16:17:45;8.70;99.90
54642;DHT22;40536;53.194;5.728;2023-03-01T16:20:11;8.50;99.90
54642;DHT22;40536;53.194;5.728;2023-03-01T16:22:37;8.40;99.90
54642;DHT22;40536;53.194;5.728;2023-03-01T16:25:03;8.30;99.90
54642;DHT22;40536;53.194;5.728;2023-03-01T16:27:29;8.20;99.90
54642;DHT22;40536;53.194;5.728;2023-03-01T16:29:54;8.40;99.90
54642;DHT22;40536;53.194;5.728;2023-03-01T16:32:20;8.40;99.90
54642;DHT22;40536;53.194;5.728;2023-03-01T16:34:46;8.20;99.90
54642;DHT22;40536;53.194;5.728;2023-03-01T16:37:15;7.70;99.90
54642;DHT22;40536;53.194;5.728;2023-03-01T16:39:40;8.60;99.90
54642;DHT22;40536;53.194;5.728;2023-03-01T16:42:09;8.00;99.90
54642;DHT22;40536;53.194;5.728;2023-03-01T16:44:37;7.50;99.90
54642;DHT22;40536;53.194;5.728;2023-03-01T16:47:03;7.90;99.90
54642;DHT22;40536;53.194;5.728;2023-03-01T16:49:29;7.10;99.90
54642;DHT22;40536;53.194;5.728;2023-03-01T16:51:54;8.40;99.90
54642;DHT22;40536;53.194;5.728;2023-03-01T16:54:20;8.40;99.90
54642;DHT22;40536;53.194;5.728;2023-03-01T16:56:46;7.80;99.90
54642;DHT22;40536;53.194;5.728;2023-03-01T16:59:11;7.30;99.90
54642;DHT22;40536;53.194;5.728;2023-03-01T17:01:37;7.90;99.90
54642;DHT22;40536;53.194;5.728;2023-03-01T17:04:05;6.60;99.90
54642;DHT22;40536;53.194;5.728;2023-03-01T17:06:31;7.40;99.90
54642;DHT22;40536;53.194;5.728;2023-03-01T17:08:58;6.50;99.90
54642;DHT22;40536;53.194;5.728;2023-03-01T17:11:24;7.90;99.90
54642;DHT22;40536;53.194;5.728;2023-03-01T17:13:50;6.20;99.90
54642;DHT22;40536;53.194;5.728;2023-03-01T17:16:18;6.10;99.90
54642;DHT22;40536;53.194;5.728;2023-03-01T17:18:46;7.30;99.90
54642;DHT22;40536;53.194;5.728;2023-03-01T17:21:13;7.10;99.90
54642;DHT22;40536;53.194;5.728;2023-03-01T17:23:40;7.10;99.90
54642;DHT22;40536;53.194;5.728;2023-03-01T17:26:06;7.40;99.90
54642;DHT22;40536;53.194;5.728;2023-03-01T17:28:36;7.00;99.90
54642;DHT22;40536;53.194;5.728;2023-03-01T17:31:04;6.70;99.90
54642;DHT22;40536;53.194;5.728;2023-03-01T17:33:30;5.30;99.90
54642;DHT22;40536;53.194;5.728;2023-03-01T17:35:56;5.70;99.90
54642;DHT22;40536;53.194;5.728;2023-03-01T17:38:22;6.20;99.90
54642;DHT22;40536;53.194;5.728;2023-03-01T17:40:48;5.20;99.90
54642;DHT22;40536;53.194;5.728;2023-03-01T17:43:15;5.30;99.90
54642;DHT22;40536;53.194;5.728;2023-03-01T17:45:46;5.00;99.90
54642;DHT22;40536;53.194;5.728;2023-03-01T17:48:19;6.50;99.90
54642;DHT22;40536;53.194;5.728;2023-03-01T17:50:45;6.30;99.90
54642;DHT22;40536;53.194;5.728;2023-03-01T17:53:10;5.40;99.90
54642;DHT22;40536;53.194;5.728;2023-03-01T17:55:37;4.80;99.90